Time,TemperatureF,DewpointF,PressureIn,WindDirection,WindDirectionDegrees,WindSpeedMPH,WindSpeedGustMPH,Humidity,HourlyPrecipIn,Conditions,Clouds,dailyrainin,SoftwareType,DateUTC
2013-06-17 00:02:00,73.0,43.0,-100.00,North,0,3.0,7.0,33,0.00,,,-99.99,,2013-06-17 06:02:00,
2013-06-17 00:12:00,73.0,42.0,-100.00,NW,315,7.0,9.0,33,0.00,,,-99.99,,2013-06-17 06:12:00,
2013-06-17 00:22:00,72.0,42.0,-100.00,North,0,3.0,8.0,33,0.00,,,-99.99,,2013-06-17 06:22:00,
2013-06-17 00:33:00,72.0,42.0,-100.00,North,0,3.0,6.0,33,0.00,,,-99.99,,2013-06-17 06:33:00,
2013-06-17 00:43:00,73.0,43.0,-100.00,NW,315,6.0,9.0,33,0.00,,,-99.99,,2013-06-17 06:43:00,
2013-06-17 00:53:00,73.0,43.0,-100.00,North,0,5.0,9.0,33,0.00,,,-99.99,,2013-06-17 06:53:00,
2013-06-17 01:02:00,72.0,43.0,-100.00,NW,325,7.0,10.0,34,0.00,,,-99.99,,2013-06-17 07:02:00,
2013-06-17 01:12:00,71.0,42.0,-100.00,NW,320,5.0,11.0,35,0.00,,,-99.99,,2013-06-17 07:12:00,
2013-06-17 01:22:00,71.0,42.0,-100.00,NW,320,6.0,8.0,35,0.00,,,-99.99,,2013-06-17 07:22:00,
2013-06-17 01:33:00,71.0,42.0,-100.00,North,10,7.0,9.0,35,0.00,,,-99.99,,2013-06-17 07:33:00,
2013-06-17 01:43:00,70.0,42.0,-100.00,NW,325,4.0,8.0,35,0.00,,,-99.99,,2013-06-17 07:43:00,
2013-06-17 01:52:00,69.0,41.0,-100.00,NW,305,5.0,8.0,35,0.00,,,-99.99,,2013-06-17 07:52:00,
2013-06-17 02:01:00,69.0,41.0,-100.00,North,0,5.0,8.0,36,0.00,,,-99.99,,2013-06-17 08:01:00,
2013-06-17 02:11:00,68.0,41.0,-100.00,NW,325,6.0,7.0,37,0.00,,,-99.99,,2013-06-17 08:11:00,
2013-06-17 02:22:00,68.0,41.0,-100.00,NNW,330,5.0,6.0,37,0.00,,,-99.99,,2013-06-17 08:22:00,
2013-06-17 02:33:00,68.0,41.0,-100.00,West,280,6.0,7.0,37,0.00,,,-99.99,,2013-06-17 08:33:00,
2013-06-17 02:43:00,68.0,41.0,-100.00,NNW,330,7.0,9.0,37,0.00,,,-99.99,,2013-06-17 08:43:00,
2013-06-17 02:52:00,68.0,41.0,-100.00,NW,315,7.0,9.0,37,0.00,,,-99.99,,2013-06-17 08:52:00,
2013-06-17 03:02:00,68.0,41.0,-100.00,West,260,6.0,10.0,37,0.00,,,-99.99,,2013-06-17 09:02:00,
2013-06-17 03:11:00,67.0,41.0,-100.00,SW,235,7.0,9.0,37,0.00,,,-99.99,,2013-06-17 09:11:00,
2013-06-17 03:22:00,67.0,41.0,-100.00,NNW,335,3.0,7.0,38,0.00,,,-99.99,,2013-06-17 09:22:00,
2013-06-17 03:34:00,67.0,41.0,-100.00,NW,320,7.0,9.0,38,0.00,,,-99.99,,2013-06-17 09:34:00,
2013-06-17 03:43:00,67.0,42.0,-100.00,NW,320,6.0,9.0,38,0.00,,,-99.99,,2013-06-17 09:43:00,
2013-06-17 03:52:00,68.0,41.0,-100.00,WSW,245,7.0,9.0,38,0.00,,,-99.99,,2013-06-17 09:52:00,
2013-06-17 04:02:00,67.0,41.0,-100.00,North,0,6.0,9.0,38,0.00,,,-99.99,,2013-06-17 10:02:00,
2013-06-17 04:12:00,67.0,41.0,-100.00,NNW,330,7.0,8.0,38,0.00,,,-99.99,,2013-06-17 10:12:00,
2013-06-17 04:22:00,67.0,41.0,-100.00,NW,320,6.0,9.0,38,0.00,,,-99.99,,2013-06-17 10:22:00,
2013-06-17 04:33:00,67.0,41.0,-100.00,WSW,245,6.0,7.0,38,0.00,,,-99.99,,2013-06-17 10:33:00,
2013-06-17 04:43:00,66.0,41.0,-100.00,SW,230,7.0,9.0,38,0.00,,,-99.99,,2013-06-17 10:43:00,
2013-06-17 04:53:00,66.0,40.0,-100.00,WSW,245,7.0,9.0,39,0.00,,,-99.99,,2013-06-17 10:53:00,
2013-06-17 05:02:00,65.0,40.0,-100.00,WSW,255,4.0,7.0,39,0.00,,,-99.99,,2013-06-17 11:02:00,
2013-06-17 05:12:00,64.0,40.0,-100.00,NNW,330,2.0,5.0,40,0.00,,,-99.99,,2013-06-17 11:12:00,
2013-06-17 05:23:00,64.0,40.0,-100.00,NW,310,4.0,6.0,41,0.00,,,-99.99,,2013-06-17 11:23:00,
2013-06-17 05:33:00,64.0,40.0,-100.00,West,275,4.0,7.0,41,0.00,,,-99.99,,2013-06-17 11:33:00,
2013-06-17 05:43:00,64.0,40.0,-100.00,West,265,6.0,6.0,41,0.00,,,-99.99,,2013-06-17 11:43:00,
2013-06-17 05:53:00,64.0,40.0,-100.00,West,280,6.0,9.0,41,0.00,,,-99.99,,2013-06-17 11:53:00,
2013-06-17 06:02:00,64.0,40.0,-100.00,West,260,6.0,9.0,41,0.00,,,-99.99,,2013-06-17 12:02:00,
2013-06-17 06:12:00,64.0,40.0,-100.00,SW,235,7.0,10.0,41,0.00,,,-99.99,,2013-06-17 12:12:00,
2013-06-17 06:22:00,64.0,40.0,-100.00,NW,310,8.0,11.0,41,0.00,,,-99.99,,2013-06-17 12:22:00,
2013-06-17 06:33:00,63.0,40.0,-100.00,West,280,6.0,10.0,42,0.00,,,-99.99,,2013-06-17 12:33:00,
2013-06-17 06:43:00,63.0,40.0,-100.00,NW,310,9.0,11.0,42,0.00,,,-99.99,,2013-06-17 12:43:00,
2013-06-17 06:53:00,63.0,40.0,-100.00,NW,315,4.0,10.0,42,0.00,,,-99.99,,2013-06-17 12:53:00,
2013-06-17 07:01:00,63.0,41.0,-100.00,NW,310,9.0,10.0,43,0.00,,,-99.99,,2013-06-17 13:01:00,
2013-06-17 07:12:00,63.0,41.0,-100.00,West,265,6.0,10.0,44,0.00,,,-99.99,,2013-06-17 13:12:00,
2013-06-17 07:22:00,63.0,41.0,-100.00,West,275,7.0,9.0,44,0.00,,,-99.99,,2013-06-17 13:22:00,
2013-06-17 07:32:00,63.0,41.0,-100.00,West,275,7.0,9.0,44,0.00,,,-99.99,,2013-06-17 13:32:00,
2013-06-17 07:43:00,64.0,42.0,-100.00,WNW,295,8.0,10.0,44,0.00,,,-99.99,,2013-06-17 13:43:00,
2013-06-17 07:52:00,65.0,43.0,-100.00,North,0,4.0,6.0,43,0.00,,,-99.99,,2013-06-17 13:52:00,
2013-06-17 08:02:00,66.0,43.0,-100.00,North,5,4.0,7.0,43,0.00,,,-99.99,,2013-06-17 14:02:00,
2013-06-17 08:12:00,67.0,43.0,-100.00,NW,320,6.0,9.0,42,0.00,,,-99.99,,2013-06-17 14:12:00,
2013-06-17 08:22:00,67.0,44.0,-100.00,NW,315,12.0,14.0,42,0.00,,,-99.99,,2013-06-17 14:22:00,
2013-06-17 08:34:00,68.0,44.0,-100.00,NW,310,12.0,16.0,41,0.00,,,-99.99,,2013-06-17 14:34:00,
2013-06-17 08:43:00,69.0,44.0,-100.00,NW,315,11.0,14.0,41,0.00,,,-99.99,,2013-06-17 14:43:00,
2013-06-17 08:53:00,69.0,44.0,-100.00,NW,310,10.0,15.0,40,0.00,,,-99.99,,2013-06-17 14:53:00,
2013-06-17 09:01:00,70.0,45.0,-100.00,NW,315,11.0,16.0,40,0.00,,,-99.99,,2013-06-17 15:01:00,
2013-06-17 09:12:00,71.0,46.0,-100.00,NW,315,9.0,14.0,39,0.00,,,-99.99,,2013-06-17 15:12:00,
2013-06-17 09:22:00,72.0,46.0,-100.00,NW,310,6.0,12.0,38,0.00,,,-99.99,,2013-06-17 15:22:00,
2013-06-17 09:33:00,73.0,46.0,-100.00,NW,315,6.0,11.0,37,0.00,,,-99.99,,2013-06-17 15:33:00,
2013-06-17 09:43:00,74.0,47.0,-100.00,West,265,5.0,12.0,37,0.00,,,-99.99,,2013-06-17 15:43:00,
2013-06-17 09:52:00,76.0,47.0,-100.00,NW,315,2.0,9.0,36,0.00,,,-99.99,,2013-06-17 15:52:00,
2013-06-17 10:02:00,79.0,49.0,-100.00,NW,305,2.0,6.0,35,0.00,,,-99.99,,2013-06-17 16:02:00,
2013-06-17 10:11:00,80.0,49.0,-100.00,South,190,1.0,5.0,34,0.00,,,-99.99,,2013-06-17 16:11:00,
2013-06-17 10:22:00,81.0,49.0,-100.00,SSE,160,2.0,6.0,33,0.00,,,-99.99,,2013-06-17 16:22:00,
2013-06-17 10:33:00,81.0,49.0,-100.00,SSE,165,3.0,5.0,33,0.00,,,-99.99,,2013-06-17 16:33:00,
2013-06-17 10:43:00,81.0,49.0,-100.00,SSE,160,4.0,7.0,33,0.00,,,-99.99,,2013-06-17 16:43:00,
2013-06-17 10:53:00,83.0,50.0,-100.00,South,170,2.0,7.0,31,0.00,,,-99.99,,2013-06-17 16:53:00,
2013-06-17 11:02:00,84.0,50.0,-100.00,SSW,200,0.0,4.0,31,0.00,,,-99.99,,2013-06-17 17:02:00,
2013-06-17 11:12:00,86.0,51.0,-100.00,SE,145,1.0,3.0,30,0.00,,,-99.99,,2013-06-17 17:12:00,
2013-06-17 11:22:00,86.0,50.0,-100.00,NW,320,3.0,5.0,28,0.00,,,-99.99,,2013-06-17 17:22:00,
2013-06-17 11:33:00,87.0,51.0,-100.00,WNW,285,0.0,5.0,28,0.00,,,-99.99,,2013-06-17 17:33:00,
2013-06-17 11:43:00,87.0,50.0,-100.00,SSE,155,0.0,2.0,28,0.00,,,-99.99,,2013-06-17 17:43:00,
2013-06-17 11:52:00,89.0,51.0,-100.00,NW,305,2.0,7.0,27,0.00,,,-99.99,,2013-06-17 17:52:00,
2013-06-17 12:02:00,89.0,51.0,-100.00,WNW,295,2.0,7.0,27,0.00,,,-99.99,,2013-06-17 18:02:00,
2013-06-17 12:12:00,89.0,50.0,-100.00,NW,305,6.0,9.0,26,0.00,,,-99.99,,2013-06-17 18:12:00,
2013-06-17 12:23:00,90.0,50.0,-100.00,East,100,0.0,6.0,25,0.00,,,-99.99,,2013-06-17 18:23:00,
2013-06-17 12:33:00,88.0,48.0,-100.00,ESE,115,1.0,2.0,25,0.00,,,-99.99,,2013-06-17 18:33:00,
2013-06-17 12:43:00,87.0,49.0,-100.00,South,170,6.0,9.0,26,0.00,,,-99.99,,2013-06-17 18:43:00,
2013-06-17 12:53:00,87.0,48.0,-100.00,South,185,3.0,8.0,26,0.00,,,-99.99,,2013-06-17 18:53:00,
2013-06-17 13:02:00,91.0,51.0,-100.00,South,180,3.0,7.0,25,0.00,,,-99.99,,2013-06-17 19:02:00,
2013-06-17 13:11:00,90.0,50.0,-100.00,NE,55,1.0,3.0,25,0.00,,,-99.99,,2013-06-17 19:11:00,
2013-06-17 13:22:00,91.0,49.0,-100.00,South,175,2.0,4.0,23,0.00,,,-99.99,,2013-06-17 19:22:00,
2013-06-17 13:33:00,92.0,49.0,-100.00,SSE,165,4.0,7.0,23,0.00,,,-99.99,,2013-06-17 19:33:00,
2013-06-17 13:43:00,93.0,48.0,-100.00,South,180,4.0,7.0,21,0.00,,,-99.99,,2013-06-17 19:43:00,
2013-06-17 13:53:00,93.0,47.0,-100.00,SSE,160,2.0,12.0,21,0.00,,,-99.99,,2013-06-17 19:53:00,
2013-06-17 14:02:00,93.0,46.0,-100.00,NE,40,4.0,11.0,20,0.00,,,-99.99,,2013-06-17 20:02:00,
2013-06-17 14:11:00,94.0,47.0,-100.00,SE,125,4.0,12.0,20,0.00,,,-99.99,,2013-06-17 20:11:00,
2013-06-17 14:22:00,95.0,48.0,-100.00,South,180,6.0,11.0,20,0.00,,,-99.99,,2013-06-17 20:22:00,
2013-06-17 14:34:00,93.0,46.0,-100.00,WSW,245,4.0,12.0,19,0.00,,,-99.99,,2013-06-17 20:34:00,
2013-06-17 14:43:00,92.0,46.0,-100.00,South,180,6.0,10.0,19,0.00,,,-99.99,,2013-06-17 20:43:00,
2013-06-17 14:52:00,89.0,43.0,-100.00,NW,320,4.0,16.0,20,0.00,,,-99.99,,2013-06-17 20:52:00,
2013-06-17 15:01:00,91.0,45.0,-100.00,NW,305,6.0,13.0,20,0.00,,,-99.99,,2013-06-17 21:01:00,
2013-06-17 15:12:00,92.0,45.0,-100.00,North,355,2.0,13.0,19,0.00,,,-99.99,,2013-06-17 21:12:00,
2013-06-17 15:22:00,93.0,46.0,-100.00,NW,305,12.0,17.0,19,0.00,,,-99.99,,2013-06-17 21:22:00,
2013-06-17 15:33:00,94.0,47.0,-100.00,NW,310,7.0,16.0,19,0.00,,,-99.99,,2013-06-17 21:33:00,
2013-06-17 15:43:00,95.0,47.0,-100.00,NW,315,4.0,9.0,19,0.00,,,-99.99,,2013-06-17 21:43:00,
2013-06-17 15:52:00,97.0,49.0,-100.00,North,10,2.0,11.0,19,0.00,,,-99.99,,2013-06-17 21:52:00,
2013-06-17 16:01:00,98.0,49.0,-100.00,East,80,1.0,9.0,19,0.00,,,-99.99,,2013-06-17 22:01:00,
2013-06-17 16:11:00,96.0,48.0,-100.00,SE,145,2.0,7.0,19,0.00,,,-99.99,,2013-06-17 22:11:00,
2013-06-17 16:22:00,95.0,46.0,-100.00,SE,145,1.0,7.0,18,0.00,,,-99.99,,2013-06-17 22:22:00,
2013-06-17 16:33:00,96.0,46.0,-100.00,NW,305,3.0,8.0,18,0.00,,,-99.99,,2013-06-17 22:33:00,
2013-06-17 16:43:00,95.0,46.0,-100.00,South,175,6.0,12.0,18,0.00,,,-99.99,,2013-06-17 22:43:00,
2013-06-17 16:53:00,95.0,46.0,-100.00,North,5,2.0,16.0,18,0.00,,,-99.99,,2013-06-17 22:53:00,
2013-06-17 17:02:00,92.0,44.0,-100.00,SSE,165,6.0,9.0,19,0.00,,,-99.99,,2013-06-17 23:02:00,
2013-06-17 17:11:00,92.0,44.0,-100.00,WNW,290,6.0,11.0,19,0.00,,,-99.99,,2013-06-17 23:11:00,
2013-06-17 17:22:00,95.0,47.0,-100.00,North,10,5.0,10.0,19,0.00,,,-99.99,,2013-06-17 23:22:00,
2013-06-17 17:32:00,98.0,48.0,-100.00,SSW,210,2.0,13.0,19,0.00,,,-99.99,,2013-06-17 23:32:00,
2013-06-17 17:42:00,95.0,46.0,-100.00,SSE,165,9.0,17.0,18,0.00,,,-99.99,,2013-06-17 23:42:00,
2013-06-17 17:52:00,95.0,46.0,-100.00,WNW,285,3.0,14.0,18,0.00,,,-99.99,,2013-06-17 23:52:00,
2013-06-17 18:01:00,95.0,45.0,-100.00,South,175,7.0,10.0,18,0.00,,,-99.99,,2013-06-18 00:01:00,
2013-06-17 18:12:00,93.0,44.0,-100.00,South,170,4.0,9.0,18,0.00,,,-99.99,,2013-06-18 00:12:00,
2013-06-17 18:22:00,92.0,43.0,-100.00,SE,145,5.0,11.0,18,0.00,,,-99.99,,2013-06-18 00:22:00,
2013-06-17 18:33:00,90.0,43.0,-100.00,North,0,3.0,8.0,19,0.00,,,-99.99,,2013-06-18 00:33:00,
2013-06-17 18:43:00,89.0,44.0,-100.00,North,5,3.0,9.0,21,0.00,,,-99.99,,2013-06-18 00:43:00,
2013-06-17 18:52:00,88.0,44.0,-100.00,NW,315,4.0,9.0,21,0.00,,,-99.99,,2013-06-18 00:52:00,
2013-06-17 19:01:00,88.0,45.0,-100.00,NW,315,5.0,7.0,22,0.00,,,-99.99,,2013-06-18 01:01:00,
2013-06-17 19:11:00,89.0,45.0,-100.00,NW,315,6.0,7.0,22,0.00,,,-99.99,,2013-06-18 01:11:00,
2013-06-17 19:23:00,89.0,45.0,-100.00,NW,320,6.0,12.0,22,0.00,,,-99.99,,2013-06-18 01:23:00,
2013-06-17 19:34:00,88.0,45.0,-100.00,NW,315,7.0,9.0,22,0.00,,,-99.99,,2013-06-18 01:34:00,
2013-06-17 19:44:00,87.0,44.0,-100.00,NE,45,0.0,7.0,22,0.00,,,-99.99,,2013-06-18 01:44:00,
2013-06-17 19:53:00,86.0,44.0,-100.00,North,0,1.0,5.0,22,0.00,,,-99.99,,2013-06-18 01:53:00,
2013-06-17 20:02:00,86.0,44.0,-100.00,North,0,1.0,5.0,22,0.00,,,-99.99,,2013-06-18 02:02:00,
2013-06-17 20:11:00,87.0,44.0,-100.00,ENE,70,1.0,7.0,22,0.00,,,-99.99,,2013-06-18 02:11:00,
2013-06-17 20:22:00,86.0,44.0,-100.00,NW,305,4.0,6.0,22,0.00,,,-99.99,,2013-06-18 02:22:00,
2013-06-17 20:34:00,86.0,44.0,-100.00,North,0,2.0,8.0,22,0.00,,,-99.99,,2013-06-18 02:34:00,
2013-06-17 20:43:00,85.0,43.0,-100.00,North,0,1.0,9.0,22,0.00,,,-99.99,,2013-06-18 02:43:00,
2013-06-17 20:53:00,84.0,42.0,-100.00,East,95,6.0,13.0,22,0.00,,,-99.99,,2013-06-18 02:53:00,
2013-06-17 21:02:00,84.0,42.0,-100.00,East,100,5.0,12.0,23,0.00,,,-99.99,,2013-06-18 03:02:00,
2013-06-17 21:12:00,83.0,42.0,-100.00,East,100,4.0,11.0,23,0.00,,,-99.99,,2013-06-18 03:12:00,
2013-06-17 21:23:00,83.0,42.0,-100.00,SSW,205,1.0,10.0,23,0.00,,,-99.99,,2013-06-18 03:23:00,
2013-06-17 21:34:00,83.0,42.0,-100.00,North,355,1.0,7.0,23,0.00,,,-99.99,,2013-06-18 03:34:00,
2013-06-17 21:43:00,83.0,42.0,-100.00,NW,305,2.0,4.0,24,0.00,,,-99.99,,2013-06-18 03:43:00,
2013-06-17 21:53:00,82.0,42.0,-100.00,North,0,1.0,4.0,24,0.00,,,-99.99,,2013-06-18 03:53:00,
2013-06-17 22:02:00,82.0,42.0,-100.00,North,0,4.0,9.0,24,0.00,,,-99.99,,2013-06-18 04:02:00,
2013-06-17 22:12:00,81.0,42.0,-100.00,NW,320,6.0,9.0,24,0.00,,,-99.99,,2013-06-18 04:12:00,
2013-06-17 22:22:00,81.0,42.0,-100.00,NW,325,9.0,11.0,24,0.00,,,-99.99,,2013-06-18 04:22:00,
2013-06-17 22:34:00,81.0,42.0,-100.00,NW,310,7.0,11.0,24,0.00,,,-99.99,,2013-06-18 04:34:00,
2013-06-17 22:43:00,80.0,42.0,-100.00,NW,315,7.0,12.0,25,0.00,,,-99.99,,2013-06-18 04:43:00,
2013-06-17 22:53:00,80.0,42.0,-100.00,NW,310,9.0,10.0,26,0.00,,,-99.99,,2013-06-18 04:53:00,
2013-06-17 23:02:00,79.0,41.0,-100.00,North,0,4.0,9.0,26,0.00,,,-99.99,,2013-06-18 05:02:00,
2013-06-17 23:12:00,79.0,42.0,-100.00,NW,305,6.0,8.0,26,0.00,,,-99.99,,2013-06-18 05:12:00,
2013-06-17 23:22:00,78.0,41.0,-100.00,NW,315,7.0,9.0,26,0.00,,,-99.99,,2013-06-18 05:22:00,
2013-06-17 23:33:00,77.0,40.0,-100.00,North,0,4.0,9.0,26,0.00,,,-99.99,,2013-06-18 05:33:00,
2013-06-17 23:43:00,77.0,40.0,-100.00,NW,315,4.0,7.0,26,0.00,,,-99.99,,2013-06-18 05:43:00,
2013-06-17 23:53:00,77.0,40.0,-100.00,NW,305,4.0,7.0,26,0.00,,,-99.99,,2013-06-18 05:53:00,